Time;durP1;ratioP1;P1;durP2;ratioP2;P2;SDS_P1;SDS_P2;PMS_P1;PMS_P2;Temp;Humidity;BMP_temperature;BMP_pressure;BME280_temperature;BME280_humidity;BME280_pressure;Samples;Min_cycle;Max_cycle;Signal;HPM_P1;HPM_P2
2022/11/04 00:01:47;;;;;;;6.15;2.75;;;11.90;90.00;;;;;;5053348;28;20052;-78
2022/11/04 00:04:15;;;;;;;4.10;2.70;;;11.90;90.10;;;;;;5053305;28;20025;-78
2022/11/04 00:06:41;;;;;;;4.78;2.83;;;11.80;89.80;;;;;;5036115;28;20022;-78
2022/11/04 00:09:09;;;;;;;4.95;2.75;;;11.80;90.00;;;;;;5035874;28;20048;-78
2022/11/04 00:14:21;;;;;;;4.72;2.60;;;11.80;90.00;;;;;;5053376;28;20072;-78
2022/11/04 00:28:41;;;;;;;4.93;2.47;;;11.70;90.20;;;;;;5053421;28;20032;-78
2022/11/04 00:30:30;;;;;;;2.95;1.45;;;11.40;89.10;;;;;;5038423;28;20092;-78
2022/11/04 00:35:40;;;;;;;1.08;0.70;;;11.40;88.90;;;;;;5053129;28;20059;-78
2022/11/04 00:38:05;;;;;;;2.45;1.02;;;11.30;88.20;;;;;;5035507;28;20049;-78
2022/11/04 00:40:31;;;;;;;1.98;0.80;;;11.30;88.20;;;;;;5035708;28;20029;-78
2022/11/04 00:42:56;;;;;;;0.98;0.65;;;11.30;87.90;;;;;;5052933;28;20053;-78
2022/11/04 00:45:22;;;;;;;1.70;0.70;;;11.30;87.40;;;;;;5052933;28;20026;-78
2022/11/04 00:47:47;;;;;;;2.17;0.43;;;11.30;87.80;;;;;;5052899;28;20060;-78
2022/11/04 00:50:13;;;;;;;3.22;0.60;;;11.30;87.70;;;;;;5052859;28;20026;-78
2022/11/04 00:52:38;;;;;;;1.42;0.55;;;11.20;87.60;;;;;;5052758;28;20029;-78
2022/11/04 00:55:05;;;;;;;1.42;0.88;;;11.20;87.80;;;;;;5052830;28;20030;-78
2022/11/04 00:57:31;;;;;;;1.42;0.75;;;11.20;87.70;;;;;;5052782;28;20025;-78
2022/11/04 00:59:56;;;;;;;1.92;1.00;;;11.10;87.40;;;;;;5052798;28;20085;-78
2022/11/04 01:02:22;;;;;;;2.53;1.10;;;11.10;87.30;;;;;;5051771;28;20036;-78
2022/11/04 01:04:48;;;;;;;1.60;0.80;;;11.10;87.10;;;;;;5037643;28;20064;-78
2022/11/04 01:07:13;;;;;;;1.95;1.10;;;11.00;87.10;;;;;;5056483;28;20034;-78
2022/11/04 01:09:39;;;;;;;3.10;1.27;;;11.00;87.20;;;;;;5056374;28;20030;-78
2022/11/04 01:12:04;;;;;;;2.47;1.42;;;10.90;87.20;;;;;;5056330;28;20060;-78
2022/11/04 01:14:30;;;;;;;4.97;2.15;;;10.90;87.20;;;;;;5056366;28;20033;-78
2022/11/04 01:16:56;;;;;;;7.57;2.15;;;10.90;87.50;;;;;;5056298;28;20029;-78
2022/11/04 01:19:22;;;;;;;4.15;2.78;;;10.90;87.90;;;;;;5038889;28;20022;-78
2022/11/04 01:21:51;;;;;;;5.95;3.30;;;10.90;88.30;;;;;;5056402;28;20033;-78
2022/11/04 01:24:18;;;;;;;6.60;3.50;;;10.80;89.30;;;;;;5056195;28;20038;-78
2022/11/04 01:26:43;;;;;;;6.55;4.00;;;10.80;89.90;;;;;;5055129;28;20025;-78
2022/11/04 01:29:09;;;;;;;7.07;4.15;;;10.80;90.10;;;;;;5056089;28;20087;-78
2022/11/04 01:31:35;;;;;;;7.32;3.95;;;10.80;90.40;;;;;;5038660;28;20044;-78
2022/11/04 01:34:00;;;;;;;8.15;4.72;;;10.80;90.60;;;;;;5038612;28;20017;-78
2022/11/04 01:36:27;;;;;;;9.15;4.60;;;10.90;90.80;;;;;;5038508;28;20052;-78
2022/11/04 01:38:54;;;;;;;6.43;3.97;;;10.90;91.00;;;;;;5038526;28;20089;-78
2022/11/04 01:41:26;;;;;;;9.30;4.85;;;10.90;91.10;;;;;;5038257;28;20036;-78
2022/11/04 01:43:59;;;;;;;9.40;4.85;;;10.90;91.30;;;;;;5055825;28;20085;-78
2022/11/04 01:46:27;;;;;;;;;;;10.90;91.30;;;;;;5056256;28;20064;-78
2022/11/04 01:48:58;;;;;;;8.93;5.07;;;10.90;91.40;;;;;;5055720;28;19905;-78
2022/11/04 01:51:24;;;;;;;9.88;5.28;;;11.00;91.20;;;;;;5054640;28;20032;-78
2022/11/04 01:53:53;;;;;;;8.40;4.80;;;11.00;91.30;;;;;;5038210;28;20030;-78
2022/11/04 01:56:20;;;;;;;8.88;5.43;;;11.10;91.30;;;;;;5055567;28;20024;-78
2022/11/04 01:58:50;;;;;;;10.02;5.47;;;11.10;91.10;;;;;;5055670;28;20048;-78
2022/11/04 02:01:16;;;;;;;9.55;5.20;;;11.10;91.00;;;;;;5055494;28;20024;-78
2022/11/04 02:03:41;;;;;;;11.52;5.57;;;11.10;90.90;;;;;;5055455;28;20089;-78
2022/11/04 02:06:08;;;;;;;9.15;4.90;;;11.20;91.00;;;;;;5055522;28;20033;-78
2022/11/04 02:08:34;;;;;;;10.77;4.80;;;11.10;90.80;;;;;;5037883;28;20033;-78
2022/11/04 02:11:02;;;;;;;9.60;4.93;;;11.10;90.90;;;;;;5037825;28;20055;-78
2022/11/04 02:13:31;;;;;;;11.60;5.65;;;11.10;90.70;;;;;;5054097;28;20156;-78
2022/11/04 02:16:41;;;;;;;10.27;4.65;;;11.20;90.60;;;;;;5054716;28;20028;-78
2022/11/04 02:19:21;;;;;;;9.85;5.60;;;11.10;90.50;;;;;;4955704;29;20079;-78
2022/11/04 02:21:50;;;;;;;9.57;5.10;;;11.10;90.50;;;;;;4955893;29;20114;-77
2022/11/04 02:24:37;;;;;;;9.57;5.05;;;11.10;90.50;;;;;;5013366;28;20120;-78
2022/11/04 02:27:21;;;;;;;11.90;4.97;;;11.10;90.50;;;;;;5055190;28;20045;-78
2022/11/04 02:30:06;;;;;;;10.65;4.93;;;11.10;90.50;;;;;;5054928;28;20030;-78
2022/11/04 02:32:41;;;;;;;8.27;4.70;;;11.10;90.40;;;;;;5037269;28;20092;-78
2022/11/04 02:35:25;;;;;;;12.40;4.93;;;11.10;90.30;;;;;;5054851;28;20021;-78
2022/11/04 02:37:50;;;;;;;13.23;4.97;;;11.10;90.20;;;;;;5054814;28;20032;-78
2022/11/04 02:40:42;;;;;;;9.98;4.68;;;11.00;90.20;;;;;;5037248;28;20464;-78
2022/11/04 02:43:25;;;;;;;7.90;3.67;;;11.00;90.10;;;;;;5054751;28;20045;-78
2022/11/04 02:46:29;;;;;;;12.00;3.88;;;11.00;90.20;;;;;;5054805;28;20021;-78
2022/11/04 02:49:07;;;;;;;6.63;3.80;;;10.90;90.20;;;;;;4939236;29;20028;-78
2022/11/04 02:51:40;;;;;;;11.20;4.22;;;10.90;90.20;;;;;;5024691;28;20468;-78
2022/11/04 02:54:24;;;;;;;8.02;3.75;;;10.80;90.10;;;;;;5036975;28;20040;-78
2022/11/04 02:56:53;;;;;;;5.63;3.08;;;10.80;90.00;;;;;;5054459;28;20048;-78
2022/11/04 02:59:28;;;;;;;6.68;2.78;;;10.80;90.00;;;;;;5054402;28;20030;-78
2022/11/04 03:01:57;;;;;;;5.30;3.03;;;10.80;90.30;;;;;;5054381;28;20041;-78
2022/11/04 03:04:31;;;;;;;6.53;2.83;;;10.70;89.50;;;;;;5054268;28;20026;-78
2022/11/04 03:06:59;;;;;;;6.90;2.95;;;10.80;89.70;;;;;;5054313;28;20035;-78
2022/11/04 03:09:28;;;;;;;8.30;2.85;;;10.80;89.60;;;;;;5054134;28;20018;-78
2022/11/04 03:12:00;;;;;;;4.40;2.20;;;10.80;89.30;;;;;;5053916;28;20099;-77
2022/11/04 03:14:36;;;;;;;9.05;2.70;;;10.70;89.10;;;;;;5036714;28;20085;-78
2022/11/04 03:17:07;;;;;;;6.40;2.58;;;10.70;89.20;;;;;;5054092;28;20029;-78
2022/11/04 03:20:02;;;;;;;6.45;2.28;;;10.80;89.10;;;;;;5054091;28;20025;-78
2022/11/04 03:22:33;;;;;;;4.65;2.42;;;10.70;88.90;;;;;;5050649;28;20037;-78
2022/11/04 03:25:00;;;;;;;4.60;2.05;;;10.70;88.80;;;;;;5036428;28;20119;-78
2022/11/04 03:27:26;;;;;;;4.40;1.95;;;10.70;88.90;;;;;;5053085;28;20025;-78
2022/11/04 03:30:16;;;;;;;4.18;1.75;;;10.70;88.70;;;;;;5053808;28;20131;-78
2022/11/04 03:32:52;;;;;;;4.40;1.90;;;10.70;88.60;;;;;;5052731;28;20126;-78
2022/11/04 03:35:18;;;;;;;6.32;1.67;;;10.70;88.60;;;;;;5053794;28;20025;-78
2022/11/04 03:37:46;;;;;;;4.68;1.80;;;10.60;88.20;;;;;;5036186;28;20031;-78
2022/11/04 03:40:12;;;;;;;2.25;1.58;;;10.60;89.00;;;;;;5053666;28;20048;-78
2022/11/04 03:42:45;;;;;;;3.60;1.48;;;10.50;88.10;;;;;;5053763;28;20068;-78
2022/11/04 03:45:12;;;;;;;5.85;2.10;;;10.50;88.10;;;;;;5053624;28;20029;-77
2022/11/04 03:47:38;;;;;;;4.65;1.92;;;10.50;88.10;;;;;;5053537;28;20025;-78
2022/11/04 03:50:24;;;;;;;2.88;1.63;;;10.50;87.90;;;;;;5052497;28;20025;-78
2022/11/04 03:52:50;;;;;;;6.30;1.90;;;10.50;87.80;;;;;;5053569;28;20144;-78
2022/11/04 03:55:16;;;;;;;6.32;1.98;;;10.60;88.10;;;;;;5052694;28;20022;-78
2022/11/04 03:57:59;;;;;;;5.25;2.55;;;10.60;88.10;;;;;;5035938;28;20028;-77
2022/11/04 04:00:31;;;;;;;4.15;2.10;;;10.60;87.90;;;;;;5053394;28;20392;-78
2022/11/04 04:03:29;;;;;;;9.88;2.72;;;10.60;88.00;;;;;;5053533;28;20024;-78
2022/11/04 04:06:07;;;;;;;5.25;2.80;;;10.50;87.80;;;;;;4998881;28;20034;-78
2022/11/04 04:08:39;;;;;;;4.53;2.03;;;10.50;87.80;;;;;;5053332;28;20036;-78
2022/11/04 04:11:17;;;;;;;7.47;2.30;;;10.50;87.90;;;;;;5035751;28;20028;-78
2022/11/04 04:14:00;;;;;;;7.68;2.20;;;10.50;87.90;;;;;;5053107;28;20033;-78
2022/11/04 04:16:35;;;;;;;5.45;2.30;;;10.60;87.80;;;;;;5053229;28;20028;-78
2022/11/04 04:19:12;;;;;;;5.32;2.45;;;10.60;87.70;;;;;;5052122;28;20044;-78
2022/11/04 04:21:45;;;;;;;4.00;2.08;;;10.60;87.60;;;;;;5053184;28;20085;-78
2022/11/04 04:29:46;;;;;;;3.05;1.90;;;10.70;87.20;;;;;;5053139;28;20041;-78
2022/11/04 04:32:13;;;;;;;7.45;2.60;;;10.70;87.00;;;;;;5052935;28;20085;-78
2022/11/04 04:34:39;;;;;;;5.30;2.15;;;10.70;86.90;;;;;;5035528;28;20033;-78
2022/11/04 04:37:24;;;;;;;6.85;2.53;;;10.70;86.60;;;;;;5035650;28;20049;-78
2022/11/04 04:45:28;;;;;;;4.38;1.80;;;10.70;86.20;;;;;;5057076;28;20080;-78
2022/11/04 04:47:55;;;;;;;6.93;2.17;;;10.70;86.10;;;;;;5056891;28;20030;-78
2022/11/04 04:50:21;;;;;;;4.22;2.05;;;10.70;86.20;;;;;;5056841;28;20088;-77
2022/11/04 04:52:52;;;;;;;4.30;1.73;;;10.70;86.20;;;;;;5056747;28;20021;-78
2022/11/04 04:55:18;;;;;;;5.70;2.10;;;10.60;85.70;;;;;;5039568;28;20026;-78
2022/11/04 04:57:44;;;;;;;4.65;1.88;;;10.50;85.90;;;;;;5056706;28;20028;-78
2022/11/04 05:00:14;;;;;;;3.13;1.70;;;10.50;86.10;;;;;;5056636;28;20025;-78
2022/11/04 05:02:39;;;;;;;5.22;2.00;;;10.60;85.70;;;;;;5056572;28;20059;-78
2022/11/04 05:05:05;;;;;;;3.33;1.88;;;10.60;85.50;;;;;;5039058;28;20105;-78
2022/11/04 05:07:31;;;;;;;6.60;1.65;;;10.60;85.70;;;;;;5056434;28;20022;-78
2022/11/04 05:09:56;;;;;;;5.43;1.80;;;10.50;85.80;;;;;;5039005;28;20508;-78
2022/11/04 05:12:22;;;;;;;3.28;1.70;;;10.50;85.60;;;;;;5038634;28;20080;-78
2022/11/04 05:14:48;;;;;;;3.75;1.63;;;10.50;85.30;;;;;;5056385;28;20030;-78
2022/11/04 05:17:14;;;;;;;3.47;1.98;;;10.50;85.10;;;;;;5038910;28;20030;-77
2022/11/04 05:19:40;;;;;;;5.35;1.83;;;10.40;85.10;;;;;;5056268;28;20025;-78
2022/11/04 05:22:05;;;;;;;4.70;1.83;;;10.40;85.40;;;;;;5056264;28;20059;-78
2022/11/04 05:24:31;;;;;;;5.13;1.50;;;10.40;85.30;;;;;;5056213;28;20049;-78
2022/11/04 05:26:57;;;;;;;3.58;1.92;;;10.40;84.90;;;;;;5056284;28;20085;-78
2022/11/04 05:29:22;;;;;;;2.20;1.40;;;10.40;85.60;;;;;;5055098;28;20053;-78
2022/11/04 05:31:48;;;;;;;3.65;1.50;;;10.40;84.70;;;;;;5056020;28;20094;-78
2022/11/04 05:34:14;;;;;;;2.95;1.75;;;10.40;84.80;;;;;;5038510;28;20018;-78
2022/11/04 05:36:40;;;;;;;7.95;1.90;;;10.30;84.80;;;;;;5055982;28;20400;-78
2022/11/04 05:39:06;;;;;;;4.75;1.40;;;10.40;84.80;;;;;;5055971;28;20556;-79
2022/11/04 05:41:32;;;;;;;2.83;1.40;;;10.40;84.60;;;;;;5055883;28;20029;-79
2022/11/04 05:44:03;;;;;;;3.22;2.00;;;10.40;84.50;;;;;;5054836;28;20032;-78
2022/11/04 05:46:29;;;;;;;1.92;1.30;;;10.30;83.80;;;;;;5055840;28;20033;-78
2022/11/04 05:48:55;;;;;;;2.53;1.40;;;10.30;83.80;;;;;;5055345;28;20033;-78
2022/11/04 05:51:23;;;;;;;2.83;1.55;;;10.20;84.00;;;;;;5055151;28;20026;-78
2022/11/04 05:53:49;;;;;;;6.45;1.70;;;10.10;83.80;;;;;;5055647;28;20017;-78
2022/11/04 05:56:15;;;;;;;2.30;1.40;;;10.20;84.10;;;;;;5038485;28;20033;-79
2022/11/04 05:58:41;;;;;;;3.20;1.30;;;10.20;84.00;;;;;;5055541;28;20580;-78
2022/11/04 06:01:11;;;;;;;1.80;1.13;;;10.20;83.80;;;;;;5038053;28;20038;-78
2022/11/04 06:03:37;;;;;;;3.45;1.30;;;10.20;83.60;;;;;;5055482;28;20029;-78
2022/11/04 06:06:03;;;;;;;3.30;1.33;;;10.20;83.50;;;;;;5037885;28;20029;-78
2022/11/04 06:08:30;;;;;;;2.67;1.20;;;10.20;83.80;;;;;;5037846;28;20114;-78
2022/11/04 06:10:56;;;;;;;5.00;1.55;;;10.20;83.70;;;;;;5055252;28;20033;-78
2022/11/04 06:13:21;;;;;;;2.70;1.40;;;10.10;83.60;;;;;;5054999;28;20038;-78
2022/11/04 06:15:47;;;;;;;2.15;1.35;;;10.10;83.90;;;;;;5055251;28;20030;-78
2022/11/04 06:18:12;;;;;;;5.07;1.40;;;10.10;83.60;;;;;;5055186;28;20030;-78
2022/11/04 06:20:38;;;;;;;4.40;1.58;;;10.00;83.50;;;;;;5037557;28;20029;-79
2022/11/04 06:23:04;;;;;;;3.30;1.85;;;9.90;83.90;;;;;;5055094;28;20033;-77
2022/11/04 06:25:29;;;;;;;4.00;1.60;;;9.90;84.40;;;;;;5055053;28;20033;-78
2022/11/04 06:27:55;;;;;;;3.67;2.08;;;9.90;84.60;;;;;;5054761;28;20033;-78
2022/11/04 06:30:22;;;;;;;7.63;2.08;;;9.90;84.80;;;;;;5054939;28;20018;-78
2022/11/04 06:32:48;;;;;;;4.13;1.80;;;10.00;84.90;;;;;;5054840;28;20025;-78
2022/11/04 06:35:13;;;;;;;2.70;1.67;;;10.00;85.50;;;;;;5054868;28;20032;-78
2022/11/04 06:37:39;;;;;;;6.20;2.00;;;10.10;84.60;;;;;;5037341;28;20056;-78
2022/11/04 06:40:05;;;;;;;4.55;1.85;;;10.10;84.40;;;;;;5037339;28;20030;-78
2022/11/04 06:42:31;;;;;;;5.95;1.80;;;10.10;84.40;;;;;;5037127;28;20044;-78
2022/11/04 06:44:57;;;;;;;2.17;1.00;;;10.00;84.50;;;;;;5037218;28;20033;-78
2022/11/04 06:47:22;;;;;;;3.05;1.40;;;10.00;84.40;;;;;;5054607;28;20081;-78
2022/11/04 06:49:48;;;;;;;5.57;1.90;;;10.10;83.80;;;;;;5054520;28;20535;-78
2022/11/04 06:52:13;;;;;;;2.13;1.10;;;10.10;83.50;;;;;;5054459;28;20029;-78
2022/11/04 06:54:39;;;;;;;2.55;1.10;;;10.10;83.20;;;;;;5036996;28;20030;-78
2022/11/04 06:57:05;;;;;;;2.95;1.50;;;10.00;83.30;;;;;;5037002;28;20061;-78
2022/11/04 06:59:31;;;;;;;3.80;1.48;;;9.90;83.70;;;;;;5036937;28;20096;-78
2022/11/04 07:01:56;;;;;;;3.45;1.60;;;9.90;83.80;;;;;;5054301;28;20045;-78
2022/11/04 07:04:22;;;;;;;3.08;1.70;;;9.90;84.20;;;;;;5036944;28;20033;-78
2022/11/04 07:06:47;;;;;;;2.85;1.60;;;10.00;84.30;;;;;;5054280;28;20044;-78
2022/11/04 07:09:15;;;;;;;2.55;1.58;;;10.00;84.20;;;;;;5054158;28;20049;-78
2022/11/04 07:11:42;;;;;;;1.98;1.50;;;9.90;84.10;;;;;;5053801;28;20026;-78
2022/11/04 07:14:08;;;;;;;2.47;1.42;;;9.90;84.50;;;;;;5054174;28;20037;-78
2022/11/04 07:16:34;;;;;;;3.65;1.83;;;9.90;84.60;;;;;;5053072;28;20026;-78
2022/11/04 07:18:59;;;;;;;3.83;1.50;;;10.00;84.50;;;;;;5054015;28;20032;-77
2022/11/04 07:21:26;;;;;;;5.40;1.73;;;10.00;84.30;;;;;;5053978;28;20061;-78
2022/11/04 07:23:52;;;;;;;3.22;1.52;;;10.00;84.40;;;;;;5053929;28;20022;-77
2022/11/04 07:26:17;;;;;;;4.47;1.98;;;10.00;84.80;;;;;;5053881;28;20051;-78
2022/11/04 07:28:43;;;;;;;3.72;1.80;;;10.00;85.00;;;;;;5053856;28;20034;-78
2022/11/04 07:31:11;;;;;;;4.30;1.90;;;10.10;85.20;;;;;;5053867;28;20061;-78
2022/11/04 07:33:36;;;;;;;3.05;1.85;;;10.20;85.20;;;;;;5053795;28;20049;-78
2022/11/04 07:36:04;;;;;;;6.30;1.85;;;10.20;85.20;;;;;;5053705;28;20029;-78
2022/11/04 07:38:30;;;;;;;4.95;2.33;;;10.30;85.30;;;;;;5052743;28;20041;-78
2022/11/04 07:40:57;;;;;;;5.45;2.05;;;10.30;85.40;;;;;;5053681;28;20037;-77
2022/11/04 07:43:22;;;;;;;5.22;2.60;;;10.30;85.60;;;;;;5053742;28;20057;-77
2022/11/04 07:45:58;;;;;;;5.70;2.60;;;10.40;85.90;;;;;;5053565;28;20037;-78
2022/11/04 07:48:24;;;;;;;4.95;2.70;;;10.50;86.20;;;;;;5036153;28;20026;-77
2022/11/04 07:50:54;;;;;;;5.60;2.83;;;10.50;86.50;;;;;;5053418;28;20057;-78
2022/11/04 07:53:19;;;;;;;9.30;3.35;;;10.50;86.80;;;;;;5036140;28;20037;-78
2022/11/04 07:55:48;;;;;;;5.38;2.80;;;10.50;87.00;;;;;;5035922;28;20033;-77
2022/11/04 07:58:13;;;;;;;4.65;2.50;;;10.60;87.50;;;;;;5053403;28;20018;-78
2022/11/04 08:00:40;;;;;;;7.68;2.75;;;10.70;87.30;;;;;;5053368;28;20041;-77
2022/11/04 08:03:05;;;;;;;5.63;3.00;;;10.80;87.90;;;;;;5019771;28;20021;-78
2022/11/04 08:05:31;;;;;;;4.82;2.63;;;11.00;87.20;;;;;;5035910;28;20029;-78
2022/11/04 08:07:56;;;;;;;10.45;3.10;;;11.30;86.90;;;;;;5052920;28;20097;-79
2022/11/04 08:10:22;;;;;;;6.05;2.75;;;11.60;85.90;;;;;;5053228;28;20033;-78
2022/11/04 08:12:50;;;;;;;8.50;3.08;;;11.80;85.20;;;;;;5034979;28;20064;-77
2022/11/04 08:15:16;;;;;;;8.65;2.80;;;11.70;84.10;;;;;;5052160;28;20022;-78
2022/11/04 08:17:41;;;;;;;5.28;2.80;;;11.60;84.40;;;;;;5035770;28;20029;-77
2022/11/04 08:20:08;;;;;;;4.85;2.88;;;11.50;84.80;;;;;;5019470;28;20481;-78
2022/11/04 08:22:34;;;;;;;9.93;3.20;;;11.40;86.00;;;;;;5035908;28;20044;-77
2022/11/04 08:24:59;;;;;;;6.72;3.50;;;11.40;86.00;;;;;;5053097;28;20038;-78
2022/11/04 08:27:25;;;;;;;8.48;3.65;;;11.30;86.10;;;;;;5053042;28;20042;-78
2022/11/04 08:29:51;;;;;;;6.68;3.45;;;11.30;86.40;;;;;;5035630;28;20044;-78
2022/11/04 08:32:17;;;;;;;8.68;3.60;;;11.30;86.80;;;;;;5035657;28;20064;-78
2022/11/04 08:34:43;;;;;;;6.30;3.55;;;11.30;87.20;;;;;;5052984;28;20022;-77
2022/11/04 08:37:14;;;;;;;7.20;3.90;;;11.30;87.40;;;;;;5052919;28;20025;-80
2022/11/04 08:39:40;;;;;;;9.07;4.32;;;11.30;87.30;;;;;;5051982;28;20021;-80
2022/11/04 08:42:06;;;;;;;8.77;3.75;;;11.30;87.20;;;;;;5053028;28;20026;-80
2022/11/04 08:44:32;;;;;;;9.18;4.25;;;11.40;87.30;;;;;;5052919;28;20056;-79
2022/11/04 08:46:58;;;;;;;9.13;3.75;;;11.40;87.30;;;;;;5035826;28;20021;-78
2022/11/04 08:49:24;;;;;;;8.40;4.00;;;11.40;87.30;;;;;;5052993;28;20400;-79
2022/11/04 08:51:55;;;;;;;8.75;3.90;;;11.40;87.30;;;;;;5035251;28;20041;-81
2022/11/04 08:54:22;;;;;;;9.55;3.58;;;11.40;87.30;;;;;;5020848;28;20018;-81
2022/11/04 08:56:48;;;;;;;10.07;3.78;;;11.40;87.50;;;;;;5035294;28;20018;-80
2022/11/04 08:59:14;;;;;;;9.38;3.65;;;11.40;87.20;;;;;;5052776;28;20037;-80
2022/11/04 09:01:39;;;;;;;12.30;3.78;;;11.50;87.20;;;;;;5052767;28;20076;-80
2022/11/04 09:04:05;;;;;;;7.40;3.40;;;11.50;87.30;;;;;;5035225;28;20033;-80
2022/11/04 09:06:38;;;;;;;9.02;3.70;;;11.50;87.30;;;;;;5052666;28;20101;-80
2022/11/04 09:09:05;;;;;;;7.20;3.40;;;11.50;87.30;;;;;;5051630;28;20092;-81
2022/11/04 09:11:33;;;;;;;8.20;3.53;;;11.60;87.20;;;;;;5052536;28;20129;-81
2022/11/04 09:14:00;;;;;;;9.43;3.80;;;11.60;86.90;;;;;;5052527;28;20056;-80
2022/11/04 09:16:26;;;;;;;6.75;3.38;;;11.70;87.50;;;;;;5035300;28;20397;-81
2022/11/04 09:18:52;;;;;;;8.95;3.45;;;11.70;86.70;;;;;;5052570;28;20048;-79
2022/11/04 09:21:17;;;;;;;4.65;2.78;;;11.70;86.70;;;;;;5052583;28;20041;-78
2022/11/04 09:23:43;;;;;;;8.15;2.97;;;11.70;86.70;;;;;;5052559;28;20030;-79
2022/11/04 09:26:11;;;;;;;9.27;3.35;;;11.70;86.60;;;;;;5037826;28;20037;-78
2022/11/04 09:28:37;;;;;;;5.70;3.45;;;11.70;86.50;;;;;;5056267;28;20021;-78
2022/11/04 09:31:12;;;;;;;7.18;3.80;;;11.80;86.60;;;;;;5056098;28;20026;-79
2022/11/04 09:33:38;;;;;;;5.35;3.40;;;11.80;86.60;;;;;;5056078;28;20041;-80
2022/11/04 09:36:04;;;;;;;7.45;4.10;;;11.80;86.60;;;;;;5038469;28;20025;-79
2022/11/04 09:38:30;;;;;;;8.40;4.00;;;11.80;86.50;;;;;;5055935;28;20034;-80
2022/11/04 09:40:55;;;;;;;6.97;4.45;;;11.90;86.60;;;;;;5038318;28;20030;-78
2022/11/04 09:43:50;;;;;;;10.25;4.70;;;11.90;86.80;;;;;;5055790;28;20076;-80
2022/11/04 09:46:16;;;;;;;11.45;4.55;;;11.90;86.60;;;;;;5055828;28;20017;-79
2022/11/04 09:48:49;;;;;;;13.38;4.72;;;11.90;86.70;;;;;;5055765;28;20029;-77
2022/11/04 09:51:17;;;;;;;9.63;4.30;;;11.90;86.70;;;;;;5055681;28;20029;-79
2022/11/04 09:53:50;;;;;;;10.35;3.83;;;11.90;86.80;;;;;;5054714;28;20045;-78
2022/11/04 09:56:17;;;;;;;;;;;11.90;87.10;;;;;;5056166;28;20095;-78
2022/11/04 09:58:43;;;;;;;6.95;3.67;;;11.90;87.10;;;;;;5055567;28;19959;-80
2022/11/04 10:01:17;;;;;;;6.15;3.90;;;11.90;87.70;;;;;;5054403;28;20044;-79
2022/11/04 10:03:52;;;;;;;8.02;3.75;;;11.90;87.10;;;;;;5038011;28;20025;-79
2022/11/04 10:06:24;;;;;;;8.95;3.75;;;11.90;87.20;;;;;;5037924;28;20025;-78
2022/11/04 10:09:16;;;;;;;7.93;4.15;;;11.90;87.30;;;;;;5055354;28;20034;-78
2022/11/04 10:11:50;;;;;;;8.00;3.83;;;12.00;87.30;;;;;;5054157;28;20080;-77
2022/11/04 10:14:51;;;;;;;9.85;4.22;;;12.10;87.30;;;;;;5055318;28;20093;-79
2022/11/04 10:17:32;;;;;;;8.02;3.90;;;12.10;87.40;;;;;;5037656;28;20092;-79
2022/11/04 10:20:16;;;;;;;8.88;3.85;;;12.10;87.00;;;;;;5055289;28;20022;-78
2022/11/04 10:23:00;;;;;;;8.10;4.18;;;12.20;86.70;;;;;;5055122;28;20055;-77
2022/11/04 10:25:47;;;;;;;13.93;4.35;;;12.20;86.60;;;;;;5055209;28;20077;-77
2022/11/04 10:28:16;;;;;;;11.23;4.72;;;12.30;86.60;;;;;;5055082;28;20028;-79
2022/11/04 10:30:45;;;;;;;9.98;4.22;;;12.30;86.70;;;;;;5054872;28;20021;-78
2022/11/04 10:33:29;;;;;;;10.07;3.80;;;12.30;86.60;;;;;;5054812;28;20527;-77
2022/11/04 10:36:07;;;;;;;7.93;4.13;;;12.30;86.60;;;;;;5054668;28;20385;-77
2022/11/04 10:38:37;;;;;;;7.97;4.25;;;12.40;86.50;;;;;;5054802;28;20031;-77
2022/11/04 10:41:31;;;;;;;7.57;3.67;;;12.40;85.80;;;;;;5037297;28;20025;-78
2022/11/04 10:44:03;;;;;;;7.63;3.97;;;12.50;85.80;;;;;;5054927;28;20041;-78
2022/11/04 10:46:48;;;;;;;13.75;4.43;;;12.60;86.00;;;;;;5054743;28;20064;-78
2022/11/04 10:49:43;;;;;;;8.63;4.10;;;12.70;86.10;;;;;;5053706;28;20036;-79
2022/11/04 10:52:10;;;;;;;11.27;4.63;;;12.90;85.50;;;;;;5054656;28;20032;-77
2022/11/04 10:54:43;;;;;;;11.50;4.95;;;13.10;85.80;;;;;;5036910;28;20025;-78
2022/11/04 10:57:10;;;;;;;10.50;4.53;;;13.40;85.60;;;;;;5054658;28;20028;-77
2022/11/04 11:00:02;;;;;;;14.20;5.65;;;13.50;84.50;;;;;;5037137;28;20109;-77
2022/11/04 11:02:42;;;;;;;12.10;4.72;;;13.70;83.80;;;;;;5054554;28;20036;-77
2022/11/04 11:05:22;;;;;;;10.30;4.75;;;13.80;83.50;;;;;;5054341;28;20028;-77
2022/11/04 11:07:52;;;;;;;13.43;5.78;;;13.80;82.50;;;;;;5054234;28;20033;-77
2022/11/04 11:10:33;;;;;;;9.88;5.65;;;13.80;82.50;;;;;;5053232;28;20049;-77
2022/11/04 11:13:02;;;;;;;11.17;6.83;;;13.80;82.20;;;;;;5036448;28;20045;-77
2022/11/04 11:15:32;;;;;;;11.93;6.25;;;13.80;82.40;;;;;;5054117;28;20021;-77
2022/11/04 11:18:06;;;;;;;11.02;5.90;;;13.80;82.20;;;;;;5054084;28;20044;-78
2022/11/04 11:20:34;;;;;;;9.93;6.00;;;13.80;82.10;;;;;;5054062;28;20025;-77
2022/11/04 11:23:00;;;;;;;10.30;5.65;;;13.80;82.10;;;;;;5054099;28;20081;-78
2022/11/04 11:25:32;;;;;;;14.00;5.95;;;13.90;82.30;;;;;;5053959;28;20036;-77
2022/11/04 11:28:01;;;;;;;9.95;5.43;;;14.00;82.50;;;;;;5053924;28;20029;-77
2022/11/04 11:30:31;;;;;;;17.23;5.80;;;14.10;82.30;;;;;;5053841;28;20025;-77
2022/11/04 11:33:19;;;;;;;12.43;6.50;;;14.20;82.00;;;;;;5053731;28;20084;-77
2022/11/04 11:35:57;;;;;;;12.32;6.07;;;14.20;81.20;;;;;;5019140;28;20030;-77
2022/11/04 11:38:27;;;;;;;10.13;6.13;;;14.10;80.70;;;;;;5036223;28;20025;-78
2022/11/04 11:41:09;;;;;;;11.88;5.60;;;14.10;80.60;;;;;;5053691;28;20022;-77
2022/11/04 11:43:43;;;;;;;14.73;5.63;;;14.10;80.60;;;;;;5053692;28;20032;-77
2022/11/04 11:46:10;;;;;;;13.68;5.60;;;14.10;80.70;;;;;;5053764;28;20081;-77
2022/11/04 11:48:49;;;;;;;11.05;6.07;;;14.00;80.80;;;;;;5052869;28;20021;-78
2022/11/04 11:51:26;;;;;;;9.82;5.72;;;14.10;80.90;;;;;;5035970;28;20030;-77
2022/11/04 11:54:28;;;;;;;11.25;5.93;;;14.20;80.70;;;;;;5053526;28;20024;-77
2022/11/04 11:56:55;;;;;;;11.73;5.78;;;14.20;80.60;;;;;;5053472;28;20085;-77
2022/11/04 11:59:21;;;;;;;11.20;5.43;;;14.30;81.00;;;;;;5053383;28;20366;-77
2022/11/04 12:02:24;;;;;;;11.77;5.75;;;14.40;80.70;;;;;;5035829;28;20036;-77
2022/11/04 12:04:50;;;;;;;11.48;5.70;;;14.50;80.20;;;;;;5053338;28;20029;-77
2022/11/04 12:07:19;;;;;;;13.30;6.18;;;14.60;79.80;;;;;;5053299;28;20025;-77
2022/11/04 12:10:00;;;;;;;13.63;6.85;;;14.80;79.70;;;;;;5053203;28;20081;-77
2022/11/04 12:13:00;;;;;;;15.68;6.72;;;15.00;79.40;;;;;;5051988;28;20101;-77
2022/11/04 12:15:41;;;;;;;13.50;6.82;;;15.10;78.20;;;;;;5035762;28;20089;-77
2022/11/04 12:18:24;;;;;;;13.93;6.88;;;15.10;77.90;;;;;;5053196;28;20017;-77
2022/11/04 12:21:04;;;;;;;13.95;6.75;;;15.00;78.20;;;;;;5053315;28;20025;-77
2022/11/04 12:24:06;;;;;;;14.98;6.63;;;15.10;77.80;;;;;;5053173;28;20041;-77
2022/11/04 12:26:46;;;;;;;17.02;6.93;;;15.00;77.70;;;;;;5019476;28;20044;-77
2022/11/04 12:29:36;;;;;;;13.13;7.72;;;15.00;77.70;;;;;;5053098;28;20029;-77
2022/11/04 12:32:39;;;;;;;13.63;7.38;;;15.00;77.80;;;;;;5052954;28;20030;-77
2022/11/04 12:35:23;;;;;;;15.20;6.75;;;14.90;77.10;;;;;;5053190;28;20025;-77
2022/11/04 12:38:33;;;;;;;12.57;7.03;;;14.90;77.30;;;;;;5051987;28;20013;-77
2022/11/04 12:41:20;;;;;;;9.75;5.55;;;14.90;77.20;;;;;;4953793;29;20056;-77
2022/11/04 12:44:04;;;;;;;11.38;5.05;;;14.80;77.10;;;;;;4953801;29;20052;-77
2022/11/04 12:47:00;;;;;;;9.95;4.63;;;14.80;77.20;;;;;;5013859;28;20030;-77
2022/11/04 12:49:44;;;;;;;11.23;5.03;;;14.80;76.90;;;;;;5052899;28;20025;-77
2022/11/04 12:52:30;;;;;;;8.80;5.10;;;14.70;76.20;;;;;;5052807;28;20029;-77
2022/11/04 12:55:16;;;;;;;11.93;5.22;;;14.70;76.90;;;;;;5053014;28;20018;-77
2022/11/04 12:58:20;;;;;;;9.30;4.95;;;14.70;77.10;;;;;;5052829;28;20028;-77
2022/11/04 13:00:49;;;;;;;9.80;4.78;;;14.60;77.50;;;;;;4957169;29;20032;-77
2022/11/04 13:03:22;;;;;;;11.40;5.70;;;14.60;77.50;;;;;;5038406;28;20131;-77
2022/11/04 13:05:54;;;;;;;11.02;5.80;;;14.60;77.40;;;;;;5056643;28;20021;-76
2022/11/04 13:08:48;;;;;;;14.80;6.82;;;14.60;77.60;;;;;;5056487;28;20037;-77
2022/11/04 13:11:25;;;;;;;18.00;7.47;;;14.60;77.50;;;;;;5056424;28;20033;-77
2022/11/04 13:14:07;;;;;;;15.70;7.45;;;14.60;77.60;;;;;;5056238;28;20042;-77
2022/11/04 13:16:38;;;;;;;13.57;7.00;;;14.60;77.60;;;;;;5055400;28;20029;-77
2022/11/04 13:19:14;;;;;;;18.25;7.22;;;14.60;77.80;;;;;;5056400;28;20017;-77
2022/11/04 13:21:40;;;;;;;13.45;7.13;;;14.60;78.00;;;;;;5038719;28;20044;-76
2022/11/04 13:24:14;;;;;;;17.17;7.63;;;14.70;77.90;;;;;;5038959;28;20036;-76
2022/11/04 13:26:40;;;;;;;15.68;7.47;;;14.70;77.70;;;;;;5056231;28;20026;-77
2022/11/04 13:29:12;;;;;;;12.82;6.30;;;14.80;77.60;;;;;;5038896;28;20104;-77
2022/11/04 13:32:09;;;;;;;9.60;5.95;;;14.80;77.30;;;;;;5056078;28;20028;-76
2022/11/04 13:34:50;;;;;;;14.07;6.00;;;14.80;77.20;;;;;;5054666;28;20033;-76
2022/11/04 13:37:23;;;;;;;12.38;6.22;;;14.80;76.60;;;;;;5056115;28;20040;-76